Abingdon, Illinois
Current Conditions -  °F | °C
As of 12:35 PM on Tuesday 27 Jan 2015 (Local Time) from KGBG Reporting Station
Overcast Overcast  
Wind Chill: -5°   Ceiling: 1200
Heat Index: -2°   Visibility: 7mi
Dew Point: -4°   Wind: 6mph
Humidity: 87%   Direction: 350°N
Pressure: 30.19"   Gusts: NA
Location:  40.8°N, 90.4°W
Report Text: KGBG 271835Z AUTO 35005KT 7SM OVC012 M02/M04 A3019 RMK AO2 T10171036
Loading
Personal Weather Stations






























Interactive Weather Map New forecast layout! Learn more

10-Day Weather Forecast

Advertisements
Track Severe Weather on mobile